Aviation WX

[Source: ADDS]
METAR
KFKL 190456Z AUTO 05003KT 10SM CLR 16/15 A3000 RMK AO2 SLP152 T01610150 402610161 =
TAF
KFKL 182324Z 1900/1924 02008KT P6SM FEW030 FEW150 FM191000 05004KT 3SM BR SCT003 FM191300 05004KT P6SM SCT100 =

Clarion Airport T-Shirts

small